createdAt,value
2022-10-21T00:02:14.570Z,59.95
2022-10-21T00:04:41.631Z,60.90
2022-10-21T00:07:08.800Z,60.53
2022-10-21T00:09:35.762Z,60.72
2022-10-21T00:12:02.740Z,60.76
2022-10-21T00:14:29.863Z,60.71
2022-10-21T00:17:00.968Z,60.55
2022-10-21T00:19:28.536Z,61.36
2022-10-21T00:21:55.509Z,61.28
2022-10-21T00:24:22.560Z,61.05
2022-10-21T00:26:50.733Z,60.87
2022-10-21T00:29:17.772Z,60.73
2022-10-21T00:31:44.807Z,61.03
2022-10-21T00:34:11.797Z,60.82
2022-10-21T00:36:38.950Z,60.98
2022-10-21T00:39:05.995Z,60.83
2022-10-21T00:41:33.188Z,60.58
2022-10-21T00:44:08.558Z,60.52
2022-10-21T00:46:54.103Z,60.37
2022-10-21T00:49:23.909Z,60.64
2022-10-21T00:51:56.336Z,61.38
2022-10-21T00:54:25.031Z,60.64
2022-10-21T00:56:55.249Z,60.54
2022-10-21T00:59:26.135Z,60.29
2022-10-21T01:01:54.056Z,61.29
2022-10-21T01:04:22.404Z,61.32
2022-10-21T01:06:50.053Z,61.12
2022-10-21T01:09:20.075Z,61.41
2022-10-21T01:11:48.239Z,61.28
2022-10-21T01:14:32.468Z,61.26
2022-10-21T01:16:59.437Z,61.81
2022-10-21T01:20:03.811Z,61.49
2022-10-21T01:22:49.009Z,61.72
2022-10-21T01:25:33.941Z,61.32
2022-10-21T01:28:28.841Z,61.17
2022-10-21T01:30:57.962Z,61.36
2022-10-21T01:34:07.502Z,62.06
2022-10-21T01:36:47.941Z,61.40
2022-10-21T01:39:39.148Z,61.36
2022-10-21T01:42:25.950Z,61.41
2022-10-21T01:45:15.724Z,60.70
2022-10-21T01:48:02.101Z,61.66
2022-10-21T01:50:36.461Z,61.17
2022-10-21T01:53:10.007Z,61.53
2022-10-21T01:55:38.700Z,61.90
2022-10-21T01:58:28.517Z,61.61
2022-10-21T02:00:58.867Z,61.61
2022-10-21T02:03:36.197Z,62.25
2022-10-21T02:06:03.969Z,61.90
2022-10-21T02:08:31.291Z,60.94
2022-10-21T02:11:03.231Z,62.04
2022-10-21T02:13:40.399Z,62.71
2022-10-21T02:16:10.279Z,62.11
2022-10-21T02:18:37.423Z,62.41
2022-10-21T02:21:13.712Z,62.94
2022-10-21T02:23:49.173Z,62.79
2022-10-21T02:26:16.430Z,62.77
2022-10-21T02:28:44.502Z,62.85
2022-10-21T02:31:40.269Z,62.82
2022-10-21T02:34:35.196Z,63.17
2022-10-21T02:37:15.065Z,63.73
2022-10-21T02:39:55.538Z,63.02
2022-10-21T02:42:34.236Z,62.89
2022-10-21T02:45:02.647Z,63.00
2022-10-21T02:47:31.631Z,63.01
2022-10-21T02:49:58.692Z,63.22
2022-10-21T02:52:25.848Z,62.64
2022-10-21T02:54:52.853Z,63.39
2022-10-21T02:57:19.968Z,63.33
2022-10-21T02:59:47.074Z,63.62
2022-10-21T03:02:14.217Z,63.24
2022-10-21T03:04:41.166Z,63.41
2022-10-21T03:07:08.309Z,63.54
2022-10-21T03:09:35.335Z,63.16
2022-10-21T03:12:02.409Z,64.33
2022-10-21T03:14:29.458Z,64.50
2022-10-21T03:16:56.542Z,63.54
2022-10-21T03:19:23.620Z,63.55
2022-10-21T03:21:50.738Z,63.96
2022-10-21T03:24:27.793Z,63.83
2022-10-21T03:26:56.481Z,64.28
2022-10-21T03:29:23.660Z,63.39
2022-10-21T03:31:50.716Z,64.08
2022-10-21T03:34:17.956Z,64.04
2022-10-21T03:36:45.016Z,64.33
2022-10-21T03:39:12.412Z,64.94
2022-10-21T03:41:39.844Z,64.20
2022-10-21T03:44:06.990Z,63.66
2022-10-21T03:46:34.022Z,64.38
2022-10-21T03:49:04.472Z,64.39
2022-10-21T03:51:32.977Z,63.72
2022-10-21T03:54:00.071Z,63.48
2022-10-21T03:56:27.327Z,64.03
2022-10-21T03:58:58.529Z,64.87
2022-10-21T04:01:26.650Z,64.44
2022-10-21T04:03:53.822Z,64.81
2022-10-21T04:06:21.202Z,64.73
2022-10-21T04:08:48.658Z,64.59
2022-10-21T04:11:16.009Z,64.73
2022-10-21T04:13:43.169Z,64.69
2022-10-21T04:16:15.326Z,64.50
2022-10-21T04:18:42.870Z,64.59
2022-10-21T04:21:10.467Z,64.73
2022-10-21T04:23:37.800Z,63.79
2022-10-21T04:26:05.930Z,64.66
2022-10-21T04:28:33.177Z,64.33
2022-10-21T04:31:00.368Z,64.61
2022-10-21T04:33:27.631Z,65.42
2022-10-21T04:35:55.831Z,65.55
2022-10-21T04:38:23.738Z,65.13
2022-10-21T04:41:02.695Z,65.65
2022-10-21T04:43:30.433Z,65.62
2022-10-21T04:45:57.946Z,65.12
2022-10-21T04:48:24.965Z,65.28
2022-10-21T04:50:53.489Z,65.52
2022-10-21T04:53:22.303Z,66.16
2022-10-21T04:55:53.536Z,66.08
2022-10-21T04:58:22.393Z,65.80
2022-10-21T05:00:52.822Z,65.77
2022-10-21T05:03:20.854Z,65.86
2022-10-21T05:05:52.101Z,65.32
2022-10-21T05:08:20.587Z,65.38
2022-10-21T05:10:48.010Z,65.39
2022-10-21T05:13:15.635Z,65.60
2022-10-21T05:15:42.719Z,65.54
2022-10-21T05:18:09.730Z,65.11
2022-10-21T05:20:36.866Z,65.64
2022-10-21T05:23:03.965Z,65.39
2022-10-21T05:25:34.142Z,65.63
2022-10-21T05:28:02.026Z,65.40
2022-10-21T05:30:29.176Z,65.58
2022-10-21T05:32:56.290Z,65.38
2022-10-21T05:35:23.307Z,65.59
2022-10-21T05:37:50.323Z,65.36
2022-10-21T05:40:18.610Z,65.29
2022-10-21T05:42:46.038Z,64.79
2022-10-21T05:45:13.507Z,64.64
2022-10-21T05:47:41.588Z,65.40
2022-10-21T05:50:10.971Z,65.06
2022-10-21T05:52:38.668Z,65.26
2022-10-21T05:55:06.722Z,65.11
2022-10-21T05:57:35.113Z,65.58
2022-10-21T06:00:02.409Z,65.78
2022-10-21T06:02:33.490Z,65.81
2022-10-21T06:05:00.503Z,65.81
2022-10-21T06:07:27.441Z,65.93
2022-10-21T06:09:54.979Z,65.36
2022-10-21T06:12:22.736Z,65.32
2022-10-21T06:14:49.837Z,65.48
2022-10-21T06:17:17.104Z,64.88
2022-10-21T06:19:47.272Z,65.18
2022-10-21T06:22:17.292Z,65.09
2022-10-21T06:24:44.607Z,64.72
2022-10-21T06:27:11.852Z,64.47
2022-10-21T06:29:41.350Z,64.51
2022-10-21T06:32:08.352Z,65.18
2022-10-21T06:34:35.340Z,64.38
2022-10-21T06:37:02.484Z,65.45
2022-10-21T06:39:29.712Z,66.10
2022-10-21T06:41:56.660Z,65.32
2022-10-21T06:44:39.862Z,66.23
2022-10-21T06:47:06.995Z,66.30
2022-10-21T06:49:34.123Z,65.34
2022-10-21T06:52:01.433Z,65.58
2022-10-21T06:54:28.472Z,66.15
2022-10-21T06:56:55.775Z,66.05
2022-10-21T06:59:22.898Z,65.65
2022-10-21T07:02:00.314Z,65.95
2022-10-21T07:04:28.996Z,65.74
2022-10-21T07:06:55.932Z,65.44
2022-10-21T07:09:23.103Z,65.88
2022-10-21T07:11:51.485Z,65.73
2022-10-21T07:14:18.571Z,64.88
2022-10-21T07:16:45.631Z,64.78
2022-10-21T07:19:12.830Z,65.03
2022-10-21T07:21:40.093Z,64.75
2022-10-21T07:24:07.344Z,64.74
2022-10-21T07:26:35.112Z,65.02
2022-10-21T07:29:03.183Z,65.40
2022-10-21T07:31:35.029Z,64.80
2022-10-21T07:36:35.771Z,65.26
2022-10-21T07:39:10.175Z,64.88
2022-10-21T07:41:43.739Z,63.96
2022-10-21T07:44:11.253Z,64.24
2022-10-21T07:46:40.139Z,64.38
2022-10-21T07:49:07.681Z,64.75
2022-10-21T07:51:34.753Z,64.40
2022-10-21T07:54:03.061Z,64.40
2022-10-21T07:56:32.836Z,64.54
2022-10-21T07:59:01.716Z,64.20
2022-10-21T08:01:29.135Z,64.72
2022-10-21T08:03:57.640Z,64.62
2022-10-21T08:06:26.301Z,64.69
2022-10-21T08:08:53.679Z,64.20
2022-10-21T08:11:27.329Z,64.16
2022-10-21T08:13:54.651Z,64.04
2022-10-21T08:16:21.885Z,64.15
2022-10-21T08:18:49.286Z,63.94
2022-10-21T08:21:16.814Z,63.77
2022-10-21T08:23:44.384Z,63.68
2022-10-21T08:26:13.745Z,63.93
2022-10-21T08:28:41.031Z,64.12
2022-10-21T08:31:11.263Z,64.30
2022-10-21T08:33:39.279Z,64.41
2022-10-21T08:36:19.361Z,63.95
2022-10-21T08:38:46.921Z,63.66
2022-10-21T08:41:29.146Z,63.68
2022-10-21T08:44:06.929Z,62.99
2022-10-21T08:46:40.813Z,62.58
2022-10-21T08:49:17.771Z,63.08
2022-10-21T08:51:54.331Z,62.98
2022-10-21T08:54:47.027Z,62.87
2022-10-21T08:57:14.495Z,62.81
2022-10-21T08:59:42.860Z,62.77
2022-10-21T09:02:12.807Z,63.15
2022-10-21T09:04:44.119Z,62.59
2022-10-21T09:07:46.195Z,62.54
2022-10-21T09:10:29.013Z,62.84
2022-10-21T09:12:59.210Z,62.27
2022-10-21T09:15:31.766Z,61.75
2022-10-21T09:18:23.669Z,61.74
2022-10-21T09:21:04.773Z,61.37
2022-10-21T09:24:01.650Z,60.97
2022-10-21T09:26:42.043Z,61.38
2022-10-21T09:29:35.627Z,61.22
2022-10-21T09:32:22.653Z,61.17
2022-10-21T09:34:58.019Z,60.45
2022-10-21T09:37:44.837Z,60.41
2022-10-21T09:40:24.295Z,59.73
2022-10-21T09:42:56.097Z,60.21
2022-10-21T09:45:25.422Z,58.98
2022-10-21T09:47:59.141Z,60.03
2022-10-21T09:50:28.441Z,59.71
2022-10-21T09:53:04.951Z,60.24
2022-10-21T09:55:32.481Z,59.58
2022-10-21T09:58:02.782Z,59.10
2022-10-21T10:00:48.558Z,58.91
2022-10-21T10:03:35.605Z,58.70
2022-10-21T10:06:04.695Z,58.31
2022-10-21T10:08:52.006Z,58.31
2022-10-21T10:11:21.932Z,57.64
2022-10-21T10:13:51.721Z,58.02
2022-10-21T10:16:30.901Z,58.49
2022-10-21T10:19:16.247Z,57.70
2022-10-21T10:21:44.508Z,57.75
2022-10-21T10:24:20.271Z,58.18
2022-10-21T10:26:48.640Z,58.26
2022-10-21T10:29:15.511Z,57.82
2022-10-21T10:31:50.595Z,58.02
2022-10-21T10:34:42.382Z,58.19
2022-10-21T10:37:24.569Z,57.85
2022-10-21T10:39:55.760Z,57.54
2022-10-21T10:42:31.912Z,58.01
2022-10-21T10:45:03.412Z,57.86
2022-10-21T10:47:43.206Z,58.12
2022-10-21T10:50:38.221Z,57.41
2022-10-21T10:53:23.599Z,57.00
2022-10-21T10:56:06.614Z,57.13
2022-10-21T10:58:39.430Z,57.25
2022-10-21T11:01:15.882Z,56.76
2022-10-21T11:03:55.209Z,56.42
2022-10-21T11:06:35.535Z,57.17
2022-10-21T11:09:03.031Z,56.70
2022-10-21T11:11:44.977Z,57.30
2022-10-21T11:14:21.769Z,57.03
2022-10-21T11:17:07.417Z,56.77
2022-10-21T11:20:06.292Z,56.75
2022-10-21T11:22:48.602Z,57.05
2022-10-21T11:25:33.524Z,57.58
2022-10-21T11:28:19.066Z,57.39
2022-10-21T11:31:13.286Z,57.55
2022-10-21T11:33:48.056Z,57.57
2022-10-21T11:36:33.721Z,57.62
2022-10-21T11:39:09.536Z,57.54
2022-10-21T11:41:49.603Z,57.40
2022-10-21T11:44:54.488Z,57.64
2022-10-21T11:47:29.578Z,57.75
2022-10-21T11:50:14.761Z,57.53
2022-10-21T11:53:12.625Z,57.66
2022-10-21T11:55:44.641Z,58.34
2022-10-21T11:58:47.056Z,58.02
2022-10-21T12:01:16.704Z,58.25
2022-10-21T12:03:55.491Z,58.23
2022-10-21T12:06:50.311Z,58.60
2022-10-21T12:09:43.399Z,58.80
2022-10-21T12:12:14.848Z,58.91
2022-10-21T12:14:52.953Z,58.69
2022-10-21T12:17:25.583Z,58.78
2022-10-21T12:19:59.477Z,58.45
2022-10-21T12:22:30.813Z,58.67
2022-10-21T12:25:13.427Z,58.87
2022-10-21T12:27:49.757Z,59.29
2022-10-21T12:30:25.092Z,59.22
2022-10-21T12:33:16.786Z,58.50
2022-10-21T12:35:57.708Z,59.44
2022-10-21T12:38:46.299Z,59.56
2022-10-21T12:41:39.928Z,59.16
2022-10-21T12:44:28.180Z,59.16
2022-10-21T12:46:56.559Z,58.89
2022-10-21T12:49:36.009Z,59.15
2022-10-21T12:52:02.937Z,58.86
2022-10-21T12:54:36.749Z,59.03
2022-10-21T12:57:07.808Z,59.20
2022-10-21T12:59:43.010Z,59.24
2022-10-21T13:02:19.466Z,59.71
2022-10-21T13:04:50.218Z,59.87
2022-10-21T13:07:17.183Z,59.50
2022-10-21T13:09:54.031Z,59.88
2022-10-21T13:12:23.878Z,59.82
2022-10-21T13:14:58.576Z,59.74
2022-10-21T13:17:35.170Z,59.69
2022-10-21T13:20:20.137Z,59.59
2022-10-21T13:22:49.861Z,59.84
2022-10-21T13:25:16.983Z,60.14
2022-10-21T13:27:48.947Z,60.37
2022-10-21T13:30:32.540Z,59.86
2022-10-21T13:33:05.080Z,59.92
2022-10-21T13:35:50.193Z,60.15
2022-10-21T13:38:24.420Z,60.80
2022-10-21T13:41:03.709Z,60.85
2022-10-21T13:43:39.804Z,60.70
2022-10-21T13:46:20.002Z,61.27
2022-10-21T13:48:49.241Z,61.17
2022-10-21T13:51:28.373Z,61.21
2022-10-21T13:54:00.001Z,61.71
2022-10-21T13:56:31.004Z,62.21
2022-10-21T13:58:58.510Z,61.81
2022-10-21T14:01:31.727Z,61.93
2022-10-21T14:04:17.284Z,62.24
2022-10-21T14:06:47.812Z,61.84
2022-10-21T14:09:25.521Z,61.90
2022-10-21T14:11:57.503Z,61.63
2022-10-21T14:14:27.173Z,62.01
2022-10-21T14:16:59.783Z,61.68
2022-10-21T14:19:30.679Z,62.00
2022-10-21T14:21:59.889Z,61.90
2022-10-21T14:24:49.165Z,61.82
2022-10-21T14:27:23.914Z,61.95
2022-10-21T14:29:51.442Z,62.20
2022-10-21T14:32:21.889Z,62.28
2022-10-21T14:35:01.536Z,62.29
2022-10-21T14:37:40.532Z,62.24
2022-10-21T14:40:32.613Z,62.56
2022-10-21T14:43:18.538Z,62.09
2022-10-21T14:45:54.057Z,62.26
2022-10-21T14:48:28.808Z,62.26
2022-10-21T14:51:05.827Z,62.43
2022-10-21T14:53:37.862Z,62.32
2022-10-21T14:56:06.892Z,61.63
2022-10-21T14:58:38.636Z,62.22
2022-10-21T15:01:18.432Z,62.39
2022-10-21T15:03:47.134Z,62.27
2022-10-21T15:06:17.651Z,62.34
2022-10-21T15:09:07.807Z,62.02
2022-10-21T15:11:38.553Z,62.24
2022-10-21T15:14:18.236Z,62.61
2022-10-21T15:16:48.294Z,62.80
2022-10-21T15:19:23.496Z,62.68
2022-10-21T15:22:00.796Z,63.02
2022-10-21T15:24:44.883Z,63.15
2022-10-21T15:27:16.455Z,63.27
2022-10-21T15:29:46.153Z,63.96
2022-10-21T15:32:18.935Z,64.08
2022-10-21T15:37:19.125Z,64.29
2022-10-21T15:39:46.172Z,64.89
2022-10-21T15:42:15.737Z,65.13
2022-10-21T15:44:48.618Z,65.18
2022-10-21T15:47:15.742Z,65.87
2022-10-21T15:49:45.970Z,66.18
2022-10-21T15:52:14.226Z,66.12
2022-10-21T15:54:41.744Z,66.14
2022-10-21T15:57:19.138Z,66.52
2022-10-21T15:59:46.942Z,66.54
2022-10-21T16:02:17.431Z,67.06
2022-10-21T16:04:45.180Z,67.34
2022-10-21T16:07:22.158Z,67.48
2022-10-21T16:09:49.478Z,67.22
2022-10-21T16:12:19.668Z,67.38
2022-10-21T16:14:46.735Z,67.54
2022-10-21T16:17:14.188Z,67.73
2022-10-21T16:19:42.115Z,67.69
2022-10-21T16:22:18.620Z,68.12
2022-10-21T16:24:45.764Z,67.70
2022-10-21T16:27:26.309Z,67.82
2022-10-21T16:30:01.968Z,68.29
2022-10-21T16:32:31.574Z,68.44
2022-10-21T16:34:58.478Z,68.35
2022-10-21T16:37:27.513Z,68.63
2022-10-21T16:39:54.699Z,68.90
2022-10-21T16:42:23.191Z,68.62
2022-10-21T16:44:51.238Z,68.71
2022-10-21T16:47:21.889Z,68.54
2022-10-21T16:49:49.390Z,68.58
2022-10-21T16:52:16.871Z,68.67
2022-10-21T16:54:47.926Z,68.05
2022-10-21T16:57:16.113Z,68.29
2022-10-21T16:59:43.029Z,68.08
2022-10-21T17:02:18.339Z,68.41
2022-10-21T17:04:47.168Z,68.07
2022-10-21T17:07:14.347Z,68.34
2022-10-21T17:09:41.318Z,68.91
2022-10-21T17:12:11.254Z,68.31
2022-10-21T17:14:38.420Z,68.64
2022-10-21T17:17:05.438Z,69.12
2022-10-21T17:19:32.428Z,69.36
2022-10-21T17:22:00.395Z,69.35
2022-10-21T17:24:28.049Z,68.94
2022-10-21T17:26:56.295Z,68.78
2022-10-21T17:29:23.905Z,68.84
2022-10-21T17:31:51.822Z,68.90
2022-10-21T17:34:30.941Z,69.41
2022-10-21T17:36:58.599Z,69.24
2022-10-21T17:39:25.777Z,69.25
2022-10-21T17:41:53.163Z,69.20
2022-10-21T17:44:21.004Z,68.81
2022-10-21T17:46:49.664Z,68.95
2022-10-21T17:49:18.248Z,68.89
2022-10-21T17:51:45.585Z,68.84
2022-10-21T17:54:12.549Z,68.58
2022-10-21T17:56:39.635Z,68.47
2022-10-21T17:59:06.668Z,68.83
2022-10-21T18:01:34.237Z,68.86
2022-10-21T18:04:01.610Z,68.71
2022-10-21T18:06:28.685Z,69.09
2022-10-21T18:08:58.585Z,69.38
2022-10-21T18:11:26.097Z,69.39
2022-10-21T18:13:55.241Z,70.03
2022-10-21T18:16:24.054Z,69.98
2022-10-21T18:18:51.339Z,69.36
2022-10-21T18:21:22.142Z,69.47
2022-10-21T18:23:52.525Z,69.46
2022-10-21T18:26:25.508Z,69.46
2022-10-21T18:28:57.307Z,69.75
2022-10-21T18:31:28.279Z,70.06
2022-10-21T18:33:56.228Z,69.46
2022-10-21T18:36:24.284Z,69.83
2022-10-21T18:38:51.604Z,69.90
2022-10-21T18:41:20.986Z,69.81
2022-10-21T18:43:53.142Z,70.06
2022-10-21T18:46:21.223Z,69.60
2022-10-21T18:48:48.815Z,69.47
2022-10-21T18:51:20.877Z,69.23
2022-10-21T18:53:51.567Z,69.25
2022-10-21T18:56:21.146Z,69.36
2022-10-21T18:58:48.393Z,69.37
2022-10-21T19:01:17.338Z,69.36
2022-10-21T19:03:44.998Z,69.02
2022-10-21T19:06:32.384Z,69.36
2022-10-21T19:09:01.319Z,69.19
2022-10-21T19:11:29.262Z,69.26
2022-10-21T19:13:56.499Z,68.83
2022-10-21T19:16:23.838Z,69.12
2022-10-21T19:18:54.855Z,69.22
2022-10-21T19:21:23.981Z,69.12
2022-10-21T19:23:51.624Z,68.76
2022-10-21T19:26:22.461Z,68.92
2022-10-21T19:28:50.738Z,68.66
2022-10-21T19:31:21.434Z,68.48
2022-10-21T19:33:48.461Z,68.66
2022-10-21T19:36:15.468Z,68.36
2022-10-21T19:38:44.653Z,68.75
2022-10-21T19:41:15.745Z,68.60
2022-10-21T19:43:43.011Z,68.79
2022-10-21T19:46:14.696Z,68.80
2022-10-21T19:48:42.315Z,69.01
2022-10-21T19:51:15.358Z,69.06
2022-10-21T19:53:45.099Z,69.37
2022-10-21T19:56:13.263Z,69.23
2022-10-21T19:58:40.756Z,70.09
2022-10-21T20:01:13.996Z,69.79
2022-10-21T20:03:42.954Z,69.74
2022-10-21T20:06:20.624Z,69.83
2022-10-21T20:08:47.622Z,69.77
2022-10-21T20:11:18.018Z,69.96
2022-10-21T20:13:45.965Z,69.93
2022-10-21T20:16:23.529Z,69.94
2022-10-21T20:18:50.821Z,69.85
2022-10-21T20:21:18.826Z,70.27
2022-10-21T20:23:46.021Z,70.59
2022-10-21T20:26:12.996Z,70.11
2022-10-21T20:28:39.951Z,70.17
2022-10-21T20:31:15.459Z,70.38
2022-10-21T20:33:47.943Z,70.32
2022-10-21T20:36:27.366Z,70.40
2022-10-21T20:38:57.016Z,70.42
2022-10-21T20:41:31.120Z,70.42
2022-10-21T20:43:58.059Z,70.74
2022-10-21T20:46:26.035Z,70.25
2022-10-21T20:48:54.801Z,70.81
2022-10-21T20:51:26.976Z,71.15
2022-10-21T20:53:58.090Z,71.15
2022-10-21T20:56:31.022Z,71.31
2022-10-21T20:58:58.459Z,71.52
2022-10-21T21:01:28.918Z,70.91
2022-10-21T21:03:58.306Z,71.25
2022-10-21T21:06:25.764Z,71.55
2022-10-21T21:09:15.145Z,71.61
2022-10-21T21:11:40.024Z,71.82
2022-10-21T21:14:07.146Z,71.96
2022-10-21T21:16:34.341Z,72.18
2022-10-21T21:19:03.677Z,72.21
2022-10-21T21:21:33.701Z,72.36
2022-10-21T21:24:01.062Z,72.16
2022-10-21T21:26:30.904Z,72.09
2022-10-21T21:28:58.422Z,71.85
2022-10-21T21:31:27.556Z,72.09
2022-10-21T21:33:55.094Z,71.80
2022-10-21T21:36:22.578Z,71.90
2022-10-21T21:38:50.592Z,71.67
2022-10-21T21:41:18.506Z,71.59
2022-10-21T21:43:47.277Z,72.17
2022-10-21T21:46:23.944Z,71.67
2022-10-21T21:49:05.130Z,71.46
2022-10-21T21:51:34.925Z,71.51
2022-10-21T21:54:02.436Z,71.23
2022-10-21T21:56:29.709Z,71.06
2022-10-21T21:58:58.172Z,71.29
2022-10-21T22:01:28.126Z,71.09
2022-10-21T22:03:56.617Z,71.35
2022-10-21T22:06:27.523Z,70.87
2022-10-21T22:08:54.907Z,70.95
2022-10-21T22:11:25.242Z,70.83
2022-10-21T22:13:53.003Z,70.74
2022-10-21T22:16:22.297Z,70.81
2022-10-21T22:18:49.553Z,70.75
2022-10-21T22:21:18.300Z,70.57
2022-10-21T22:23:46.643Z,70.62
2022-10-21T22:26:14.599Z,70.50
2022-10-21T22:28:42.182Z,70.76
2022-10-21T22:31:12.275Z,70.80
2022-10-21T22:33:39.909Z,70.81
2022-10-21T22:36:07.749Z,70.66
2022-10-21T22:38:35.139Z,71.36
2022-10-21T22:41:07.079Z,71.41
2022-10-21T22:43:35.521Z,71.59
2022-10-21T22:46:15.315Z,71.39
2022-10-21T22:48:49.146Z,71.34
2022-10-21T22:51:16.466Z,71.85
2022-10-21T22:53:43.473Z,71.95
2022-10-21T22:56:10.535Z,71.92
2022-10-21T22:58:37.586Z,72.60
2022-10-21T23:01:09.515Z,72.34
2022-10-21T23:03:37.266Z,72.82
2022-10-21T23:06:04.618Z,72.70
2022-10-21T23:08:31.791Z,72.89
2022-10-21T23:10:59.086Z,72.72
2022-10-21T23:13:26.618Z,72.44
2022-10-21T23:15:53.591Z,72.51
2022-10-21T23:18:20.708Z,72.31
2022-10-21T23:20:47.805Z,72.35
2022-10-21T23:23:14.905Z,72.16
2022-10-21T23:25:41.924Z,72.43
2022-10-21T23:28:09.997Z,72.13
2022-10-21T23:30:38.323Z,71.78
2022-10-21T23:33:05.456Z,71.87
2022-10-21T23:35:33.078Z,71.87
2022-10-21T23:38:00.228Z,72.00
2022-10-21T23:40:28.309Z,71.49
2022-10-21T23:42:55.320Z,71.52
2022-10-21T23:45:22.394Z,71.55
2022-10-21T23:47:49.891Z,71.69
2022-10-21T23:50:17.026Z,71.43
2022-10-21T23:52:43.965Z,71.68
2022-10-21T23:55:10.921Z,71.89
2022-10-21T23:57:39.416Z,72.18
